sensor_id;sensor_type;location;lat;lon;timestamp;P1;durP1;ratioP1;P2;durP2;ratioP2
55148;SDS011;49539;48.160;11.530;2023-07-13T00:00:29;4.10;;;2.78;;
55148;SDS011;49539;48.160;11.530;2023-07-13T00:03:05;6.95;;;2.92;;
55148;SDS011;49539;48.160;11.530;2023-07-13T00:05:41;6.95;;;3.67;;
55148;SDS011;49539;48.160;11.530;2023-07-13T00:08:16;6.40;;;3.17;;
55148;SDS011;49539;48.160;11.530;2023-07-13T00:10:52;7.35;;;3.28;;
55148;SDS011;49539;48.160;11.530;2023-07-13T00:13:29;6.10;;;3.67;;
55148;SDS011;49539;48.160;11.530;2023-07-13T00:16:05;4.45;;;2.55;;
55148;SDS011;49539;48.160;11.530;2023-07-13T00:18:46;5.57;;;3.03;;
55148;SDS011;49539;48.160;11.530;2023-07-13T00:21:29;5.47;;;3.00;;
55148;SDS011;49539;48.160;11.530;2023-07-13T00:24:05;6.10;;;3.95;;
55148;SDS011;49539;48.160;11.530;2023-07-13T00:26:41;5.40;;;3.20;;
55148;SDS011;49539;48.160;11.530;2023-07-13T00:29:19;6.50;;;3.30;;
55148;SDS011;49539;48.160;11.530;2023-07-13T00:31:56;7.55;;;3.28;;
55148;SDS011;49539;48.160;11.530;2023-07-13T00:34:32;5.90;;;3.45;;
55148;SDS011;49539;48.160;11.530;2023-07-13T00:37:08;5.55;;;2.65;;
55148;SDS011;49539;48.160;11.530;2023-07-13T00:39:43;4.35;;;2.97;;
55148;SDS011;49539;48.160;11.530;2023-07-13T00:42:20;4.47;;;2.88;;
55148;SDS011;49539;48.160;11.530;2023-07-13T00:45:02;8.57;;;3.50;;
55148;SDS011;49539;48.160;11.530;2023-07-13T00:47:41;6.43;;;2.90;;
55148;SDS011;49539;48.160;11.530;2023-07-13T00:50:18;4.72;;;2.72;;
55148;SDS011;49539;48.160;11.530;2023-07-13T00:52:54;4.25;;;2.75;;
55148;SDS011;49539;48.160;11.530;2023-07-13T00:55:30;4.38;;;2.70;;
55148;SDS011;49539;48.160;11.530;2023-07-13T00:58:05;5.53;;;3.10;;
55148;SDS011;49539;48.160;11.530;2023-07-13T01:00:41;5.07;;;2.45;;
55148;SDS011;49539;48.160;11.530;2023-07-13T01:03:17;4.45;;;2.53;;
55148;SDS011;49539;48.160;11.530;2023-07-13T01:05:53;4.05;;;2.80;;
55148;SDS011;49539;48.160;11.530;2023-07-13T01:08:28;4.07;;;2.03;;
55148;SDS011;49539;48.160;11.530;2023-07-13T01:11:04;3.90;;;2.15;;
55148;SDS011;49539;48.160;11.530;2023-07-13T01:13:39;6.18;;;2.72;;
55148;SDS011;49539;48.160;11.530;2023-07-13T01:16:17;3.72;;;2.20;;
55148;SDS011;49539;48.160;11.530;2023-07-13T01:18:55;4.05;;;2.40;;
55148;SDS011;49539;48.160;11.530;2023-07-13T01:21:33;4.55;;;2.50;;
55148;SDS011;49539;48.160;11.530;2023-07-13T01:24:09;3.65;;;2.30;;
55148;SDS011;49539;48.160;11.530;2023-07-13T01:26:44;4.00;;;2.50;;
55148;SDS011;49539;48.160;11.530;2023-07-13T01:29:19;4.30;;;2.45;;
55148;SDS011;49539;48.160;11.530;2023-07-13T01:31:55;5.10;;;2.60;;
55148;SDS011;49539;48.160;11.530;2023-07-13T01:34:30;4.00;;;2.40;;
55148;SDS011;49539;48.160;11.530;2023-07-13T01:37:05;5.45;;;2.63;;
55148;SDS011;49539;48.160;11.530;2023-07-13T01:39:41;4.50;;;2.60;;
55148;SDS011;49539;48.160;11.530;2023-07-13T01:42:17;4.88;;;2.42;;
55148;SDS011;49539;48.160;11.530;2023-07-13T01:44:53;6.47;;;2.80;;
55148;SDS011;49539;48.160;11.530;2023-07-13T01:47:28;5.78;;;2.55;;
55148;SDS011;49539;48.160;11.530;2023-07-13T01:50:04;4.18;;;2.10;;
55148;SDS011;49539;48.160;11.530;2023-07-13T01:52:39;5.45;;;2.53;;
55148;SDS011;49539;48.160;11.530;2023-07-13T01:55:14;4.97;;;3.00;;
55148;SDS011;49539;48.160;11.530;2023-07-13T01:57:50;4.88;;;2.90;;
55148;SDS011;49539;48.160;11.530;2023-07-13T02:00:25;5.70;;;3.03;;
55148;SDS011;49539;48.160;11.530;2023-07-13T02:03:00;4.63;;;2.90;;
55148;SDS011;49539;48.160;11.530;2023-07-13T02:05:36;7.63;;;2.88;;
55148;SDS011;49539;48.160;11.530;2023-07-13T02:08:11;4.65;;;2.75;;
55148;SDS011;49539;48.160;11.530;2023-07-13T02:10:46;8.45;;;2.92;;
55148;SDS011;49539;48.160;11.530;2023-07-13T02:13:21;6.38;;;2.80;;
55148;SDS011;49539;48.160;11.530;2023-07-13T02:15:57;6.13;;;3.53;;
55148;SDS011;49539;48.160;11.530;2023-07-13T02:18:32;5.93;;;2.80;;
55148;SDS011;49539;48.160;11.530;2023-07-13T02:21:07;7.18;;;2.92;;
55148;SDS011;49539;48.160;11.530;2023-07-13T02:23:43;5.55;;;2.85;;
55148;SDS011;49539;48.160;11.530;2023-07-13T02:26:19;5.68;;;3.35;;
55148;SDS011;49539;48.160;11.530;2023-07-13T02:28:54;6.10;;;3.22;;
55148;SDS011;49539;48.160;11.530;2023-07-13T02:31:29;4.43;;;2.83;;
55148;SDS011;49539;48.160;11.530;2023-07-13T02:34:05;6.93;;;3.03;;
55148;SDS011;49539;48.160;11.530;2023-07-13T02:36:40;6.07;;;2.92;;
55148;SDS011;49539;48.160;11.530;2023-07-13T02:39:17;7.65;;;3.45;;
55148;SDS011;49539;48.160;11.530;2023-07-13T02:41:52;5.47;;;3.25;;
55148;SDS011;49539;48.160;11.530;2023-07-13T02:44:28;5.47;;;3.40;;
55148;SDS011;49539;48.160;11.530;2023-07-13T02:47:04;7.15;;;3.45;;
55148;SDS011;49539;48.160;11.530;2023-07-13T02:49:40;8.82;;;3.65;;
55148;SDS011;49539;48.160;11.530;2023-07-13T02:52:16;12.07;;;4.45;;
55148;SDS011;49539;48.160;11.530;2023-07-13T02:54:51;8.82;;;3.72;;
55148;SDS011;49539;48.160;11.530;2023-07-13T02:57:27;6.82;;;3.72;;
55148;SDS011;49539;48.160;11.530;2023-07-13T03:00:03;7.57;;;3.90;;
55148;SDS011;49539;48.160;11.530;2023-07-13T03:02:41;10.48;;;4.13;;
55148;SDS011;49539;48.160;11.530;2023-07-13T03:05:17;9.25;;;4.25;;
55148;SDS011;49539;48.160;11.530;2023-07-13T03:07:52;5.95;;;3.97;;
55148;SDS011;49539;48.160;11.530;2023-07-13T03:10:28;7.22;;;4.55;;
55148;SDS011;49539;48.160;11.530;2023-07-13T03:13:03;10.75;;;4.88;;
55148;SDS011;49539;48.160;11.530;2023-07-13T03:15:39;11.05;;;4.47;;
55148;SDS011;49539;48.160;11.530;2023-07-13T03:18:14;13.82;;;5.18;;
55148;SDS011;49539;48.160;11.530;2023-07-13T03:20:50;6.72;;;4.03;;
55148;SDS011;49539;48.160;11.530;2023-07-13T03:23:26;7.20;;;3.95;;
55148;SDS011;49539;48.160;11.530;2023-07-13T03:26:06;6.93;;;3.72;;
55148;SDS011;49539;48.160;11.530;2023-07-13T03:28:41;6.32;;;3.92;;
55148;SDS011;49539;48.160;11.530;2023-07-13T03:31:19;8.05;;;4.15;;
55148;SDS011;49539;48.160;11.530;2023-07-13T03:33:55;7.70;;;4.13;;
55148;SDS011;49539;48.160;11.530;2023-07-13T03:36:31;7.38;;;4.57;;
55148;SDS011;49539;48.160;11.530;2023-07-13T03:39:08;9.52;;;4.78;;
55148;SDS011;49539;48.160;11.530;2023-07-13T03:41:43;7.72;;;4.28;;
55148;SDS011;49539;48.160;11.530;2023-07-13T03:44:19;5.97;;;3.78;;
55148;SDS011;49539;48.160;11.530;2023-07-13T03:46:54;8.48;;;4.63;;
55148;SDS011;49539;48.160;11.530;2023-07-13T03:49:29;9.70;;;4.53;;
55148;SDS011;49539;48.160;11.530;2023-07-13T03:52:05;6.20;;;3.83;;
55148;SDS011;49539;48.160;11.530;2023-07-13T03:54:41;6.97;;;4.53;;
55148;SDS011;49539;48.160;11.530;2023-07-13T03:57:16;12.60;;;4.05;;
55148;SDS011;49539;48.160;11.530;2023-07-13T03:59:52;6.88;;;4.00;;
55148;SDS011;49539;48.160;11.530;2023-07-13T04:02:27;8.63;;;4.05;;
55148;SDS011;49539;48.160;11.530;2023-07-13T04:05:03;7.32;;;3.88;;
55148;SDS011;49539;48.160;11.530;2023-07-13T04:07:39;7.78;;;3.88;;
55148;SDS011;49539;48.160;11.530;2023-07-13T04:10:14;6.80;;;3.60;;
55148;SDS011;49539;48.160;11.530;2023-07-13T04:12:49;5.25;;;3.47;;
55148;SDS011;49539;48.160;11.530;2023-07-13T04:15:25;8.57;;;3.38;;
55148;SDS011;49539;48.160;11.530;2023-07-13T04:18:01;8.45;;;3.45;;
55148;SDS011;49539;48.160;11.530;2023-07-13T04:20:38;6.10;;;3.40;;
55148;SDS011;49539;48.160;11.530;2023-07-13T04:23:16;7.80;;;3.30;;
55148;SDS011;49539;48.160;11.530;2023-07-13T04:25:52;6.63;;;3.13;;
55148;SDS011;49539;48.160;11.530;2023-07-13T04:28:28;6.20;;;3.03;;
55148;SDS011;49539;48.160;11.530;2023-07-13T04:31:03;7.25;;;3.22;;
55148;SDS011;49539;48.160;11.530;2023-07-13T04:33:39;6.97;;;3.42;;
55148;SDS011;49539;48.160;11.530;2023-07-13T04:36:15;6.90;;;3.72;;
55148;SDS011;49539;48.160;11.530;2023-07-13T04:38:51;5.90;;;2.83;;
55148;SDS011;49539;48.160;11.530;2023-07-13T04:41:26;5.80;;;2.78;;
55148;SDS011;49539;48.160;11.530;2023-07-13T04:44:03;6.47;;;3.35;;
55148;SDS011;49539;48.160;11.530;2023-07-13T04:46:40;5.88;;;3.50;;
55148;SDS011;49539;48.160;11.530;2023-07-13T04:49:17;4.55;;;2.83;;
55148;SDS011;49539;48.160;11.530;2023-07-13T04:51:52;5.72;;;3.38;;
55148;SDS011;49539;48.160;11.530;2023-07-13T04:54:27;5.63;;;3.13;;
55148;SDS011;49539;48.160;11.530;2023-07-13T04:57:06;5.20;;;3.05;;
55148;SDS011;49539;48.160;11.530;2023-07-13T04:59:41;5.63;;;3.05;;
55148;SDS011;49539;48.160;11.530;2023-07-13T05:02:16;6.32;;;2.80;;
55148;SDS011;49539;48.160;11.530;2023-07-13T05:04:52;5.00;;;2.90;;
55148;SDS011;49539;48.160;11.530;2023-07-13T05:07:27;4.43;;;2.70;;
55148;SDS011;49539;48.160;11.530;2023-07-13T05:10:03;6.90;;;2.67;;
55148;SDS011;49539;48.160;11.530;2023-07-13T05:12:40;5.00;;;3.08;;
55148;SDS011;49539;48.160;11.530;2023-07-13T05:15:16;9.00;;;3.47;;
55148;SDS011;49539;48.160;11.530;2023-07-13T05:17:55;5.15;;;2.90;;
55148;SDS011;49539;48.160;11.530;2023-07-13T05:20:31;5.00;;;2.55;;
55148;SDS011;49539;48.160;11.530;2023-07-13T05:23:06;6.88;;;3.00;;
55148;SDS011;49539;48.160;11.530;2023-07-13T05:25:41;5.30;;;2.95;;
55148;SDS011;49539;48.160;11.530;2023-07-13T05:28:16;5.10;;;3.05;;
55148;SDS011;49539;48.160;11.530;2023-07-13T05:30:52;7.15;;;3.30;;
55148;SDS011;49539;48.160;11.530;2023-07-13T05:33:29;5.70;;;2.78;;
55148;SDS011;49539;48.160;11.530;2023-07-13T05:36:04;4.07;;;2.50;;
55148;SDS011;49539;48.160;11.530;2023-07-13T05:38:40;4.70;;;2.33;;
55148;SDS011;49539;48.160;11.530;2023-07-13T05:41:15;5.53;;;2.80;;
55148;SDS011;49539;48.160;11.530;2023-07-13T05:43:50;7.75;;;2.90;;
55148;SDS011;49539;48.160;11.530;2023-07-13T05:46:26;4.10;;;2.35;;
55148;SDS011;49539;48.160;11.530;2023-07-13T05:49:01;5.70;;;2.63;;
55148;SDS011;49539;48.160;11.530;2023-07-13T05:51:36;5.47;;;2.80;;
55148;SDS011;49539;48.160;11.530;2023-07-13T05:54:12;6.03;;;3.03;;
55148;SDS011;49539;48.160;11.530;2023-07-13T05:56:47;3.92;;;2.40;;
55148;SDS011;49539;48.160;11.530;2023-07-13T05:59:22;4.35;;;2.67;;
55148;SDS011;49539;48.160;11.530;2023-07-13T06:01:57;4.53;;;2.83;;
55148;SDS011;49539;48.160;11.530;2023-07-13T06:04:33;4.88;;;3.03;;
55148;SDS011;49539;48.160;11.530;2023-07-13T06:07:08;5.93;;;2.92;;
55148;SDS011;49539;48.160;11.530;2023-07-13T06:09:43;8.20;;;2.88;;
55148;SDS011;49539;48.160;11.530;2023-07-13T06:12:19;4.78;;;2.92;;
55148;SDS011;49539;48.160;11.530;2023-07-13T06:14:54;9.73;;;2.78;;
55148;SDS011;49539;48.160;11.530;2023-07-13T06:17:29;5.35;;;2.35;;
55148;SDS011;49539;48.160;11.530;2023-07-13T06:20:04;3.58;;;2.30;;
55148;SDS011;49539;48.160;11.530;2023-07-13T06:22:40;6.82;;;2.67;;
55148;SDS011;49539;48.160;11.530;2023-07-13T06:25:15;4.07;;;2.15;;
55148;SDS011;49539;48.160;11.530;2023-07-13T06:27:51;4.38;;;2.28;;
55148;SDS011;49539;48.160;11.530;2023-07-13T06:30:26;6.72;;;2.67;;
55148;SDS011;49539;48.160;11.530;2023-07-13T06:33:01;5.63;;;2.53;;
55148;SDS011;49539;48.160;11.530;2023-07-13T06:35:36;4.75;;;2.38;;
55148;SDS011;49539;48.160;11.530;2023-07-13T06:38:12;6.15;;;2.50;;
55148;SDS011;49539;48.160;11.530;2023-07-13T06:40:47;4.10;;;2.00;;
55148;SDS011;49539;48.160;11.530;2023-07-13T06:43:22;5.47;;;2.47;;
55148;SDS011;49539;48.160;11.530;2023-07-13T06:46:00;3.65;;;2.28;;
55148;SDS011;49539;48.160;11.530;2023-07-13T06:48:36;3.17;;;1.90;;
55148;SDS011;49539;48.160;11.530;2023-07-13T06:51:11;4.90;;;2.42;;
55148;SDS011;49539;48.160;11.530;2023-07-13T06:53:46;3.80;;;2.10;;
55148;SDS011;49539;48.160;11.530;2023-07-13T06:56:21;5.50;;;2.47;;
55148;SDS011;49539;48.160;11.530;2023-07-13T06:58:57;4.45;;;2.00;;
55148;SDS011;49539;48.160;11.530;2023-07-13T07:01:32;8.05;;;2.75;;
55148;SDS011;49539;48.160;11.530;2023-07-13T07:04:08;4.53;;;2.50;;
55148;SDS011;49539;48.160;11.530;2023-07-13T07:06:43;4.70;;;2.50;;
55148;SDS011;49539;48.160;11.530;2023-07-13T07:09:18;6.20;;;2.60;;
55148;SDS011;49539;48.160;11.530;2023-07-13T07:11:54;6.68;;;1.98;;
55148;SDS011;49539;48.160;11.530;2023-07-13T07:14:29;4.35;;;2.10;;
55148;SDS011;49539;48.160;11.530;2023-07-13T07:17:04;4.53;;;2.03;;
55148;SDS011;49539;48.160;11.530;2023-07-13T07:19:40;4.63;;;2.28;;
55148;SDS011;49539;48.160;11.530;2023-07-13T07:22:15;4.47;;;2.38;;
55148;SDS011;49539;48.160;11.530;2023-07-13T07:24:50;14.32;;;3.20;;
55148;SDS011;49539;48.160;11.530;2023-07-13T07:27:26;4.63;;;1.88;;
55148;SDS011;49539;48.160;11.530;2023-07-13T07:30:01;3.38;;;1.92;;
55148;SDS011;49539;48.160;11.530;2023-07-13T07:32:37;5.65;;;1.98;;
55148;SDS011;49539;48.160;11.530;2023-07-13T07:35:12;2.97;;;1.92;;
55148;SDS011;49539;48.160;11.530;2023-07-13T07:37:47;5.72;;;2.50;;
55148;SDS011;49539;48.160;11.530;2023-07-13T07:40:22;11.20;;;2.30;;
55148;SDS011;49539;48.160;11.530;2023-07-13T07:42:58;3.10;;;2.13;;
55148;SDS011;49539;48.160;11.530;2023-07-13T07:45:33;4.32;;;2.42;;
55148;SDS011;49539;48.160;11.530;2023-07-13T07:48:09;4.93;;;2.50;;
55148;SDS011;49539;48.160;11.530;2023-07-13T07:50:44;4.18;;;1.83;;
55148;SDS011;49539;48.160;11.530;2023-07-13T07:53:20;4.35;;;2.08;;
55148;SDS011;49539;48.160;11.530;2023-07-13T07:55:55;4.95;;;2.13;;
55148;SDS011;49539;48.160;11.530;2023-07-13T07:58:31;5.65;;;2.28;;
55148;SDS011;49539;48.160;11.530;2023-07-13T08:01:06;2.55;;;1.55;;
55148;SDS011;49539;48.160;11.530;2023-07-13T08:03:41;6.30;;;2.10;;
55148;SDS011;49539;48.160;11.530;2023-07-13T08:06:16;3.05;;;2.03;;
55148;SDS011;49539;48.160;11.530;2023-07-13T08:08:54;4.47;;;2.08;;
55148;SDS011;49539;48.160;11.530;2023-07-13T08:11:30;4.90;;;2.08;;
55148;SDS011;49539;48.160;11.530;2023-07-13T08:14:05;8.02;;;2.20;;
55148;SDS011;49539;48.160;11.530;2023-07-13T08:16:40;12.85;;;2.08;;
55148;SDS011;49539;48.160;11.530;2023-07-13T08:19:16;4.82;;;2.40;;
55148;SDS011;49539;48.160;11.530;2023-07-13T08:21:51;5.80;;;2.38;;
55148;SDS011;49539;48.160;11.530;2023-07-13T08:24:26;4.80;;;2.13;;
55148;SDS011;49539;48.160;11.530;2023-07-13T08:27:01;5.75;;;1.98;;
55148;SDS011;49539;48.160;11.530;2023-07-13T08:29:38;5.93;;;1.85;;
55148;SDS011;49539;48.160;11.530;2023-07-13T08:32:13;8.25;;;2.25;;
55148;SDS011;49539;48.160;11.530;2023-07-13T08:34:49;4.72;;;2.28;;
55148;SDS011;49539;48.160;11.530;2023-07-13T08:37:24;3.33;;;1.77;;
55148;SDS011;49539;48.160;11.530;2023-07-13T08:40:00;6.50;;;2.42;;
55148;SDS011;49539;48.160;11.530;2023-07-13T08:42:45;3.67;;;1.80;;
55148;SDS011;49539;48.160;11.530;2023-07-13T08:45:23;3.90;;;1.50;;
55148;SDS011;49539;48.160;11.530;2023-07-13T08:50:49;3.65;;;2.00;;
55148;SDS011;49539;48.160;11.530;2023-07-13T08:53:28;4.53;;;2.28;;
55148;SDS011;49539;48.160;11.530;2023-07-13T08:56:08;3.83;;;1.58;;
55148;SDS011;49539;48.160;11.530;2023-07-13T08:58:45;2.67;;;1.42;;
55148;SDS011;49539;48.160;11.530;2023-07-13T09:01:24;5.93;;;2.15;;
55148;SDS011;49539;48.160;11.530;2023-07-13T09:12:23;4.43;;;1.42;;
55148;SDS011;49539;48.160;11.530;2023-07-13T09:15:00;7.40;;;1.58;;
55148;SDS011;49539;48.160;11.530;2023-07-13T09:17:45;4.38;;;1.30;;
55148;SDS011;49539;48.160;11.530;2023-07-13T09:20:25;5.00;;;1.58;;
55148;SDS011;49539;48.160;11.530;2023-07-13T09:23:04;3.50;;;1.27;;
55148;SDS011;49539;48.160;11.530;2023-07-13T09:25:42;3.30;;;1.33;;
55148;SDS011;49539;48.160;11.530;2023-07-13T09:28:20;4.95;;;2.10;;
55148;SDS011;49539;48.160;11.530;2023-07-13T09:33:59;3.90;;;1.48;;
55148;SDS011;49539;48.160;11.530;2023-07-13T09:36:34;3.42;;;1.67;;
55148;SDS011;49539;48.160;11.530;2023-07-13T09:39:12;4.30;;;1.75;;
55148;SDS011;49539;48.160;11.530;2023-07-13T09:42:03;3.10;;;1.60;;
55148;SDS011;49539;48.160;11.530;2023-07-13T09:44:54;6.10;;;1.80;;
55148;SDS011;49539;48.160;11.530;2023-07-13T09:47:31;7.15;;;2.00;;
55148;SDS011;49539;48.160;11.530;2023-07-13T09:50:09;4.63;;;1.88;;
55148;SDS011;49539;48.160;11.530;2023-07-13T09:52:46;5.93;;;1.58;;
55148;SDS011;49539;48.160;11.530;2023-07-13T09:58:10;3.70;;;1.63;;
55148;SDS011;49539;48.160;11.530;2023-07-13T10:00:59;3.95;;;1.48;;
55148;SDS011;49539;48.160;11.530;2023-07-13T10:03:35;4.80;;;1.63;;
55148;SDS011;49539;48.160;11.530;2023-07-13T10:06:15;1.90;;;1.20;;
55148;SDS011;49539;48.160;11.530;2023-07-13T10:08:51;5.53;;;1.50;;
55148;SDS011;49539;48.160;11.530;2023-07-13T10:11:28;3.83;;;2.00;;
55148;SDS011;49539;48.160;11.530;2023-07-13T10:16:45;3.78;;;1.25;;
55148;SDS011;49539;48.160;11.530;2023-07-13T10:19:22;5.40;;;1.33;;
55148;SDS011;49539;48.160;11.530;2023-07-13T10:24:45;3.90;;;1.63;;
55148;SDS011;49539;48.160;11.530;2023-07-13T10:27:23;3.15;;;1.30;;
55148;SDS011;49539;48.160;11.530;2023-07-13T10:32:47;3.45;;;1.27;;
55148;SDS011;49539;48.160;11.530;2023-07-13T10:35:23;5.72;;;1.42;;
55148;SDS011;49539;48.160;11.530;2023-07-13T10:38:03;3.15;;;1.45;;
55148;SDS011;49539;48.160;11.530;2023-07-13T10:40:42;4.13;;;1.58;;
55148;SDS011;49539;48.160;11.530;2023-07-13T10:43:20;2.58;;;1.20;;
55148;SDS011;49539;48.160;11.530;2023-07-13T10:45:57;4.55;;;1.75;;
55148;SDS011;49539;48.160;11.530;2023-07-13T10:48:34;4.38;;;1.50;;
55148;SDS011;49539;48.160;11.530;2023-07-13T10:51:14;4.82;;;1.50;;
55148;SDS011;49539;48.160;11.530;2023-07-13T10:56:45;5.88;;;1.50;;
55148;SDS011;49539;48.160;11.530;2023-07-13T10:59:25;3.15;;;1.42;;
55148;SDS011;49539;48.160;11.530;2023-07-13T11:04:46;3.45;;;1.80;;
55148;SDS011;49539;48.160;11.530;2023-07-13T11:07:29;1.90;;;1.27;;
55148;SDS011;49539;48.160;11.530;2023-07-13T11:10:05;3.50;;;1.48;;
55148;SDS011;49539;48.160;11.530;2023-07-13T11:15:32;1.45;;;0.98;;
55148;SDS011;49539;48.160;11.530;2023-07-13T11:18:18;5.07;;;1.77;;
55148;SDS011;49539;48.160;11.530;2023-07-13T11:21:05;1.92;;;1.10;;
55148;SDS011;49539;48.160;11.530;2023-07-13T11:24:29;2.45;;;1.25;;
55148;SDS011;49539;48.160;11.530;2023-07-13T11:29:24;2.83;;;1.60;;
55148;SDS011;49539;48.160;11.530;2023-07-13T11:32:01;3.55;;;1.52;;
55148;SDS011;49539;48.160;11.530;2023-07-13T11:34:38;3.42;;;1.77;;
55148;SDS011;49539;48.160;11.530;2023-07-13T11:37:14;5.45;;;1.52;;
55148;SDS011;49539;48.160;11.530;2023-07-13T11:39:51;2.25;;;1.20;;
55148;SDS011;49539;48.160;11.530;2023-07-13T11:42:27;3.90;;;1.17;;
55148;SDS011;49539;48.160;11.530;2023-07-13T11:45:12;7.13;;;1.52;;
55148;SDS011;49539;48.160;11.530;2023-07-13T11:47:53;3.20;;;1.80;;
55148;SDS011;49539;48.160;11.530;2023-07-13T11:50:29;3.13;;;1.55;;
55148;SDS011;49539;48.160;11.530;2023-07-13T11:53:08;3.25;;;1.30;;
55148;SDS011;49539;48.160;11.530;2023-07-13T11:55:44;5.05;;;1.60;;
55148;SDS011;49539;48.160;11.530;2023-07-13T11:58:23;2.45;;;1.58;;
55148;SDS011;49539;48.160;11.530;2023-07-13T12:01:00;4.20;;;1.50;;
55148;SDS011;49539;48.160;11.530;2023-07-13T12:03:39;4.40;;;1.70;;
55148;SDS011;49539;48.160;11.530;2023-07-13T12:06:23;3.65;;;1.88;;
55148;SDS011;49539;48.160;11.530;2023-07-13T12:08:59;5.15;;;1.50;;
55148;SDS011;49539;48.160;11.530;2023-07-13T12:11:35;4.82;;;1.40;;
55148;SDS011;49539;48.160;11.530;2023-07-13T12:14:16;4.25;;;1.42;;
55148;SDS011;49539;48.160;11.530;2023-07-13T12:16:51;3.28;;;1.50;;
55148;SDS011;49539;48.160;11.530;2023-07-13T12:19:27;2.00;;;1.50;;
55148;SDS011;49539;48.160;11.530;2023-07-13T12:22:03;4.00;;;1.58;;
55148;SDS011;49539;48.160;11.530;2023-07-13T12:24:39;1.45;;;1.30;;
55148;SDS011;49539;48.160;11.530;2023-07-13T12:30:04;5.72;;;1.70;;
55148;SDS011;49539;48.160;11.530;2023-07-13T12:32:40;3.38;;;1.42;;
55148;SDS011;49539;48.160;11.530;2023-07-13T12:35:16;5.90;;;1.70;;
55148;SDS011;49539;48.160;11.530;2023-07-13T12:37:52;3.55;;;1.40;;
55148;SDS011;49539;48.160;11.530;2023-07-13T12:40:34;3.88;;;1.52;;
55148;SDS011;49539;48.160;11.530;2023-07-13T12:43:10;2.95;;;1.38;;
55148;SDS011;49539;48.160;11.530;2023-07-13T12:46:01;2.83;;;1.55;;
55148;SDS011;49539;48.160;11.530;2023-07-13T12:48:39;3.78;;;1.45;;
55148;SDS011;49539;48.160;11.530;2023-07-13T12:51:16;5.57;;;1.40;;
55148;SDS011;49539;48.160;11.530;2023-07-13T12:56:48;8.32;;;2.05;;
55148;SDS011;49539;48.160;11.530;2023-07-13T12:59:24;3.65;;;1.50;;
55148;SDS011;49539;48.160;11.530;2023-07-13T13:02:01;2.13;;;1.20;;
55148;SDS011;49539;48.160;11.530;2023-07-13T13:04:39;2.72;;;1.40;;
55148;SDS011;49539;48.160;11.530;2023-07-13T13:07:14;3.92;;;1.45;;
55148;SDS011;49539;48.160;11.530;2023-07-13T13:09:50;3.50;;;1.25;;
55148;SDS011;49539;48.160;11.530;2023-07-13T13:12:25;3.00;;;1.15;;
55148;SDS011;49539;48.160;11.530;2023-07-13T13:15:01;3.10;;;1.23;;
55148;SDS011;49539;48.160;11.530;2023-07-13T13:17:37;1.13;;;0.90;;
55148;SDS011;49539;48.160;11.530;2023-07-13T13:20:21;4.20;;;1.25;;
55148;SDS011;49539;48.160;11.530;2023-07-13T13:22:57;3.67;;;1.35;;
55148;SDS011;49539;48.160;11.530;2023-07-13T13:25:32;4.97;;;1.48;;
55148;SDS011;49539;48.160;11.530;2023-07-13T13:28:12;2.83;;;1.30;;
55148;SDS011;49539;48.160;11.530;2023-07-13T13:30:50;3.45;;;1.40;;
55148;SDS011;49539;48.160;11.530;2023-07-13T13:33:25;6.22;;;1.30;;
55148;SDS011;49539;48.160;11.530;2023-07-13T13:36:01;2.17;;;1.13;;
55148;SDS011;49539;48.160;11.530;2023-07-13T13:38:36;3.22;;;1.10;;
55148;SDS011;49539;48.160;11.530;2023-07-13T13:41:12;3.53;;;1.17;;
55148;SDS011;49539;48.160;11.530;2023-07-13T13:43:48;1.80;;;1.20;;
55148;SDS011;49539;48.160;11.530;2023-07-13T13:46:24;3.30;;;1.13;;
55148;SDS011;49539;48.160;11.530;2023-07-13T13:49:03;2.05;;;1.48;;
55148;SDS011;49539;48.160;11.530;2023-07-13T13:51:39;5.88;;;1.60;;
55148;SDS011;49539;48.160;11.530;2023-07-13T13:54:15;3.58;;;1.08;;
55148;SDS011;49539;48.160;11.530;2023-07-13T13:56:51;5.30;;;1.58;;
55148;SDS011;49539;48.160;11.530;2023-07-13T13:59:27;4.50;;;1.20;;
55148;SDS011;49539;48.160;11.530;2023-07-13T14:02:07;3.55;;;1.40;;
55148;SDS011;49539;48.160;11.530;2023-07-13T14:04:55;2.47;;;1.20;;
55148;SDS011;49539;48.160;11.530;2023-07-13T14:07:31;3.63;;;1.58;;
55148;SDS011;49539;48.160;11.530;2023-07-13T14:10:14;2.65;;;1.35;;
55148;SDS011;49539;48.160;11.530;2023-07-13T14:12:53;1.98;;;1.17;;
55148;SDS011;49539;48.160;11.530;2023-07-13T14:15:29;1.80;;;1.30;;
55148;SDS011;49539;48.160;11.530;2023-07-13T14:18:08;6.03;;;1.40;;
55148;SDS011;49539;48.160;11.530;2023-07-13T14:20:44;5.05;;;1.63;;
55148;SDS011;49539;48.160;11.530;2023-07-13T14:23:20;2.58;;;1.42;;
55148;SDS011;49539;48.160;11.530;2023-07-13T14:25:55;2.20;;;1.30;;
55148;SDS011;49539;48.160;11.530;2023-07-13T14:28:31;3.60;;;1.20;;
55148;SDS011;49539;48.160;11.530;2023-07-13T14:31:06;4.68;;;1.40;;
55148;SDS011;49539;48.160;11.530;2023-07-13T14:33:42;5.15;;;1.40;;
55148;SDS011;49539;48.160;11.530;2023-07-13T14:36:24;2.45;;;1.02;;
55148;SDS011;49539;48.160;11.530;2023-07-13T14:39:22;6.30;;;1.40;;
55148;SDS011;49539;48.160;11.530;2023-07-13T14:41:58;2.00;;;1.10;;
55148;SDS011;49539;48.160;11.530;2023-07-13T14:44:34;2.53;;;1.30;;
55148;SDS011;49539;48.160;11.530;2023-07-13T14:47:09;3.25;;;1.23;;
55148;SDS011;49539;48.160;11.530;2023-07-13T14:49:46;15.30;;;1.48;;
55148;SDS011;49539;48.160;11.530;2023-07-13T14:52:23;2.67;;;1.08;;
55148;SDS011;49539;48.160;11.530;2023-07-13T14:54:59;1.88;;;1.05;;
55148;SDS011;49539;48.160;11.530;2023-07-13T14:57:34;1.95;;;1.10;;
55148;SDS011;49539;48.160;11.530;2023-07-13T15:02:50;2.63;;;1.08;;
55148;SDS011;49539;48.160;11.530;2023-07-13T15:05:27;3.30;;;1.05;;
55148;SDS011;49539;48.160;11.530;2023-07-13T15:08:04;3.42;;;0.93;;
55148;SDS011;49539;48.160;11.530;2023-07-13T15:10:39;3.42;;;1.02;;
55148;SDS011;49539;48.160;11.530;2023-07-13T15:15:51;1.45;;;1.00;;
55148;SDS011;49539;48.160;11.530;2023-07-13T15:18:26;2.72;;;0.90;;
55148;SDS011;49539;48.160;11.530;2023-07-13T15:21:02;3.65;;;0.80;;
55148;SDS011;49539;48.160;11.530;2023-07-13T15:23:39;3.33;;;1.08;;
55148;SDS011;49539;48.160;11.530;2023-07-13T15:26:14;1.65;;;1.00;;
55148;SDS011;49539;48.160;11.530;2023-07-13T15:28:50;2.13;;;0.80;;
55148;SDS011;49539;48.160;11.530;2023-07-13T15:31:26;3.15;;;1.00;;
55148;SDS011;49539;48.160;11.530;2023-07-13T15:34:13;2.80;;;0.88;;
55148;SDS011;49539;48.160;11.530;2023-07-13T15:39:24;3.80;;;1.52;;
55148;SDS011;49539;48.160;11.530;2023-07-13T15:42:00;1.75;;;0.98;;
55148;SDS011;49539;48.160;11.530;2023-07-13T15:44:35;1.83;;;1.13;;
55148;SDS011;49539;48.160;11.530;2023-07-13T15:47:11;4.07;;;1.10;;
55148;SDS011;49539;48.160;11.530;2023-07-13T15:49:47;2.63;;;1.10;;
55148;SDS011;49539;48.160;11.530;2023-07-13T15:52:22;1.20;;;0.82;;
55148;SDS011;49539;48.160;11.530;2023-07-13T15:54:58;3.55;;;1.00;;
55148;SDS011;49539;48.160;11.530;2023-07-13T15:57:35;2.25;;;1.02;;
55148;SDS011;49539;48.160;11.530;2023-07-13T16:00:17;5.38;;;1.20;;
55148;SDS011;49539;48.160;11.530;2023-07-13T16:05:29;3.20;;;1.02;;
55148;SDS011;49539;48.160;11.530;2023-07-13T16:08:05;2.55;;;1.30;;
55148;SDS011;49539;48.160;11.530;2023-07-13T16:10:41;1.60;;;1.00;;
55148;SDS011;49539;48.160;11.530;2023-07-13T16:13:16;2.67;;;1.10;;
55148;SDS011;49539;48.160;11.530;2023-07-13T16:15:54;3.83;;;1.30;;
55148;SDS011;49539;48.160;11.530;2023-07-13T16:18:31;6.13;;;1.23;;
55148;SDS011;49539;48.160;11.530;2023-07-13T16:21:13;3.10;;;1.50;;